sensor_id;sensor_type;location;lat;lon;timestamp;temperature;humidity
2012;DHT22;1009;51.436;6.972;2022-12-16T00:00:06;-3.60;99.90
2012;DHT22;1009;51.436;6.972;2022-12-16T00:02:34;-3.60;99.90
2012;DHT22;1009;51.436;6.972;2022-12-16T00:05:02;-3.50;99.90
2012;DHT22;1009;51.436;6.972;2022-12-16T00:07:29;-3.50;99.90
2012;DHT22;1009;51.436;6.972;2022-12-16T00:09:56;-3.60;99.90
2012;DHT22;1009;51.436;6.972;2022-12-16T00:12:23;-3.50;99.90
2012;DHT22;1009;51.436;6.972;2022-12-16T00:14:50;-3.60;99.90
2012;DHT22;1009;51.436;6.972;2022-12-16T00:17:16;-3.60;99.90
2012;DHT22;1009;51.436;6.972;2022-12-16T00:19:43;-3.70;99.90
2012;DHT22;1009;51.436;6.972;2022-12-16T00:22:11;-3.60;99.90
2012;DHT22;1009;51.436;6.972;2022-12-16T00:24:38;-3.60;99.90
2012;DHT22;1009;51.436;6.972;2022-12-16T00:27:05;-3.50;99.90
2012;DHT22;1009;51.436;6.972;2022-12-16T00:29:31;-3.40;99.90
2012;DHT22;1009;51.436;6.972;2022-12-16T00:31:59;-3.30;99.90
2012;DHT22;1009;51.436;6.972;2022-12-16T00:34:27;-3.30;99.90
2012;DHT22;1009;51.436;6.972;2022-12-16T00:36:54;-3.20;99.90
2012;DHT22;1009;51.436;6.972;2022-12-16T00:39:22;-3.20;99.90
2012;DHT22;1009;51.436;6.972;2022-12-16T00:41:48;-3.10;99.90
2012;DHT22;1009;51.436;6.972;2022-12-16T00:44:16;-3.10;99.90
2012;DHT22;1009;51.436;6.972;2022-12-16T00:46:43;-3.10;99.90
2012;DHT22;1009;51.436;6.972;2022-12-16T00:49:09;-3.10;99.90
2012;DHT22;1009;51.436;6.972;2022-12-16T00:51:36;-3.10;99.90
2012;DHT22;1009;51.436;6.972;2022-12-16T00:54:03;-3.00;99.90
2012;DHT22;1009;51.436;6.972;2022-12-16T00:56:31;-3.10;99.90
2012;DHT22;1009;51.436;6.972;2022-12-16T00:58:58;-3.20;99.90
2012;DHT22;1009;51.436;6.972;2022-12-16T01:01:24;-3.20;99.90
2012;DHT22;1009;51.436;6.972;2022-12-16T01:03:51;-3.30;99.90
2012;DHT22;1009;51.436;6.972;2022-12-16T01:06:20;-3.30;99.90
2012;DHT22;1009;51.436;6.972;2022-12-16T01:08:47;-3.20;99.90
2012;DHT22;1009;51.436;6.972;2022-12-16T01:11:15;-3.20;99.90
2012;DHT22;1009;51.436;6.972;2022-12-16T01:13:43;-3.40;99.90
2012;DHT22;1009;51.436;6.972;2022-12-16T01:16:10;-3.60;99.90
2012;DHT22;1009;51.436;6.972;2022-12-16T01:18:37;-3.70;99.90
2012;DHT22;1009;51.436;6.972;2022-12-16T01:21:05;-3.80;99.90
2012;DHT22;1009;51.436;6.972;2022-12-16T01:23:32;-3.80;99.90
2012;DHT22;1009;51.436;6.972;2022-12-16T01:26:00;-3.70;99.90
2012;DHT22;1009;51.436;6.972;2022-12-16T01:28:27;-3.70;99.90
2012;DHT22;1009;51.436;6.972;2022-12-16T01:30:57;-3.60;99.90
2012;DHT22;1009;51.436;6.972;2022-12-16T01:33:26;-3.60;99.90
2012;DHT22;1009;51.436;6.972;2022-12-16T01:35:58;-3.60;99.90
2012;DHT22;1009;51.436;6.972;2022-12-16T01:38:25;-3.60;99.90
2012;DHT22;1009;51.436;6.972;2022-12-16T01:40:51;-3.60;99.90
2012;DHT22;1009;51.436;6.972;2022-12-16T01:43:22;-3.70;99.90
2012;DHT22;1009;51.436;6.972;2022-12-16T01:45:50;-3.60;99.90
2012;DHT22;1009;51.436;6.972;2022-12-16T01:48:29;-3.50;99.90
2012;DHT22;1009;51.436;6.972;2022-12-16T01:51:01;-3.50;99.90
2012;DHT22;1009;51.436;6.972;2022-12-16T01:53:29;-3.40;99.90
2012;DHT22;1009;51.436;6.972;2022-12-16T01:55:56;-3.30;99.90
2012;DHT22;1009;51.436;6.972;2022-12-16T01:58:26;-3.40;99.90
2012;DHT22;1009;51.436;6.972;2022-12-16T02:00:55;-3.30;99.90
2012;DHT22;1009;51.436;6.972;2022-12-16T02:03:23;-3.30;99.90
2012;DHT22;1009;51.436;6.972;2022-12-16T02:05:51;-3.30;99.90
2012;DHT22;1009;51.436;6.972;2022-12-16T02:08:18;-3.30;99.90
2012;DHT22;1009;51.436;6.972;2022-12-16T02:10:58;-3.40;99.90
2012;DHT22;1009;51.436;6.972;2022-12-16T02:13:38;-3.50;99.90
2012;DHT22;1009;51.436;6.972;2022-12-16T02:16:12;-3.50;99.90
2012;DHT22;1009;51.436;6.972;2022-12-16T02:18:46;-3.50;99.90
2012;DHT22;1009;51.436;6.972;2022-12-16T02:21:30;-3.60;99.90
2012;DHT22;1009;51.436;6.972;2022-12-16T02:27:15;-3.80;99.90
2012;DHT22;1009;51.436;6.972;2022-12-16T02:32:55;-3.80;99.90
2012;DHT22;1009;51.436;6.972;2022-12-16T02:35:28;-3.80;99.90
2012;DHT22;1009;51.436;6.972;2022-12-16T02:38:10;-3.90;99.90
2012;DHT22;1009;51.436;6.972;2022-12-16T02:40:42;-4.00;99.90
2012;DHT22;1009;51.436;6.972;2022-12-16T02:43:16;-4.00;99.90
2012;DHT22;1009;51.436;6.972;2022-12-16T02:45:46;-4.00;99.90
2012;DHT22;1009;51.436;6.972;2022-12-16T02:48:15;-4.00;99.90
2012;DHT22;1009;51.436;6.972;2022-12-16T02:50:44;-4.00;99.90
2012;DHT22;1009;51.436;6.972;2022-12-16T02:53:12;-4.00;99.90
2012;DHT22;1009;51.436;6.972;2022-12-16T02:55:49;-4.00;99.90
2012;DHT22;1009;51.436;6.972;2022-12-16T02:58:20;-3.90;99.90
2012;DHT22;1009;51.436;6.972;2022-12-16T03:00:56;-3.80;99.90
2012;DHT22;1009;51.436;6.972;2022-12-16T03:03:31;-3.80;99.90
2012;DHT22;1009;51.436;6.972;2022-12-16T03:06:02;-3.80;99.90
2012;DHT22;1009;51.436;6.972;2022-12-16T03:08:32;-3.70;99.90
2012;DHT22;1009;51.436;6.972;2022-12-16T03:11:01;-3.80;99.90
2012;DHT22;1009;51.436;6.972;2022-12-16T03:13:34;-3.80;99.90
2012;DHT22;1009;51.436;6.972;2022-12-16T03:16:04;-3.70;99.90
2012;DHT22;1009;51.436;6.972;2022-12-16T03:18:34;-3.70;99.90
2012;DHT22;1009;51.436;6.972;2022-12-16T03:21:05;-3.70;99.90
2012;DHT22;1009;51.436;6.972;2022-12-16T03:23:38;-3.70;99.90
2012;DHT22;1009;51.436;6.972;2022-12-16T03:26:12;-3.60;99.90
2012;DHT22;1009;51.436;6.972;2022-12-16T03:28:44;-3.60;99.90
2012;DHT22;1009;51.436;6.972;2022-12-16T03:31:21;-3.60;99.90
2012;DHT22;1009;51.436;6.972;2022-12-16T03:33:56;-3.50;99.90
2012;DHT22;1009;51.436;6.972;2022-12-16T03:36:25;-3.50;99.90
2012;DHT22;1009;51.436;6.972;2022-12-16T03:38:54;-3.50;99.90
2012;DHT22;1009;51.436;6.972;2022-12-16T03:41:22;-3.50;99.90
2012;DHT22;1009;51.436;6.972;2022-12-16T03:43:50;-3.50;99.90
2012;DHT22;1009;51.436;6.972;2022-12-16T03:46:17;-3.50;99.90
2012;DHT22;1009;51.436;6.972;2022-12-16T03:48:46;-3.60;99.90
2012;DHT22;1009;51.436;6.972;2022-12-16T03:51:14;-3.70;99.90
2012;DHT22;1009;51.436;6.972;2022-12-16T03:53:41;-3.80;99.90
2012;DHT22;1009;51.436;6.972;2022-12-16T03:56:08;-3.90;99.90
2012;DHT22;1009;51.436;6.972;2022-12-16T03:58:35;-3.90;99.90
2012;DHT22;1009;51.436;6.972;2022-12-16T04:01:04;-3.90;99.90
2012;DHT22;1009;51.436;6.972;2022-12-16T04:03:31;-3.90;99.90
2012;DHT22;1009;51.436;6.972;2022-12-16T04:05:58;-3.90;99.90
2012;DHT22;1009;51.436;6.972;2022-12-16T04:08:26;-3.90;99.90
2012;DHT22;1009;51.436;6.972;2022-12-16T04:10:53;-3.90;99.90
2012;DHT22;1009;51.436;6.972;2022-12-16T04:13:37;-4.00;99.90
2012;DHT22;1009;51.436;6.972;2022-12-16T04:16:22;-4.20;99.90
2012;DHT22;1009;51.436;6.972;2022-12-16T04:19:10;-4.50;99.90
2012;DHT22;1009;51.436;6.972;2022-12-16T04:21:56;-4.50;99.90
2012;DHT22;1009;51.436;6.972;2022-12-16T04:24:42;-4.40;99.90
2012;DHT22;1009;51.436;6.972;2022-12-16T04:27:09;-4.40;99.90
2012;DHT22;1009;51.436;6.972;2022-12-16T04:29:52;-4.30;99.90
2012;DHT22;1009;51.436;6.972;2022-12-16T04:32:36;-4.30;99.90
2012;DHT22;1009;51.436;6.972;2022-12-16T04:35:21;-4.30;99.90
2012;DHT22;1009;51.436;6.972;2022-12-16T04:38:05;-4.30;99.90
2012;DHT22;1009;51.436;6.972;2022-12-16T04:40:50;-4.20;99.90
2012;DHT22;1009;51.436;6.972;2022-12-16T04:43:35;-4.20;99.90
2012;DHT22;1009;51.436;6.972;2022-12-16T04:46:19;-4.20;99.90
2012;DHT22;1009;51.436;6.972;2022-12-16T04:49:04;-4.20;99.90
2012;DHT22;1009;51.436;6.972;2022-12-16T04:51:48;-4.30;99.90
2012;DHT22;1009;51.436;6.972;2022-12-16T04:54:32;-4.40;99.90
2012;DHT22;1009;51.436;6.972;2022-12-16T04:57:18;-4.50;99.90
2012;DHT22;1009;51.436;6.972;2022-12-16T05:00:03;-4.60;99.90
2012;DHT22;1009;51.436;6.972;2022-12-16T05:02:48;-4.80;99.90
2012;DHT22;1009;51.436;6.972;2022-12-16T05:05:32;-4.90;99.90
2012;DHT22;1009;51.436;6.972;2022-12-16T05:08:16;-4.90;99.90
2012;DHT22;1009;51.436;6.972;2022-12-16T05:11:00;-5.10;99.90
2012;DHT22;1009;51.436;6.972;2022-12-16T05:13:46;-5.00;99.90
2012;DHT22;1009;51.436;6.972;2022-12-16T05:16:30;-5.10;99.90
2012;DHT22;1009;51.436;6.972;2022-12-16T05:19:14;-5.20;99.90
2012;DHT22;1009;51.436;6.972;2022-12-16T05:21:58;-5.20;99.90
2012;DHT22;1009;51.436;6.972;2022-12-16T05:24:42;-5.00;99.90
2012;DHT22;1009;51.436;6.972;2022-12-16T05:27:26;-4.80;99.90
2012;DHT22;1009;51.436;6.972;2022-12-16T05:30:12;-4.60;99.90
2012;DHT22;1009;51.436;6.972;2022-12-16T05:32:57;-4.60;99.90
2012;DHT22;1009;51.436;6.972;2022-12-16T05:35:41;-4.50;99.90
2012;DHT22;1009;51.436;6.972;2022-12-16T05:38:25;-4.50;99.90
2012;DHT22;1009;51.436;6.972;2022-12-16T05:41:09;-4.50;99.90
2012;DHT22;1009;51.436;6.972;2022-12-16T05:43:53;-4.60;99.90
2012;DHT22;1009;51.436;6.972;2022-12-16T05:46:39;-4.50;99.90
2012;DHT22;1009;51.436;6.972;2022-12-16T05:49:23;-4.40;99.90
2012;DHT22;1009;51.436;6.972;2022-12-16T05:52:07;-4.40;99.90
2012;DHT22;1009;51.436;6.972;2022-12-16T05:54:52;-4.30;99.90
2012;DHT22;1009;51.436;6.972;2022-12-16T05:57:36;-4.20;99.90
2012;DHT22;1009;51.436;6.972;2022-12-16T06:00:20;-4.20;99.90
2012;DHT22;1009;51.436;6.972;2022-12-16T06:03:06;-4.10;99.90
2012;DHT22;1009;51.436;6.972;2022-12-16T06:05:50;-4.10;99.90
2012;DHT22;1009;51.436;6.972;2022-12-16T06:08:34;-4.10;99.90
2012;DHT22;1009;51.436;6.972;2022-12-16T06:11:18;-4.10;99.90
2012;DHT22;1009;51.436;6.972;2022-12-16T06:14:02;-4.10;99.90
2012;DHT22;1009;51.436;6.972;2022-12-16T06:16:46;-4.00;99.90
2012;DHT22;1009;51.436;6.972;2022-12-16T06:19:32;-4.00;99.90
2012;DHT22;1009;51.436;6.972;2022-12-16T06:22:16;-4.00;99.90
2012;DHT22;1009;51.436;6.972;2022-12-16T06:25:00;-3.90;99.90
2012;DHT22;1009;51.436;6.972;2022-12-16T06:27:49;-4.00;99.90
2012;DHT22;1009;51.436;6.972;2022-12-16T06:30:34;-3.90;99.90
2012;DHT22;1009;51.436;6.972;2022-12-16T06:33:18;-3.90;99.90
2012;DHT22;1009;51.436;6.972;2022-12-16T06:36:07;-3.90;99.90
2012;DHT22;1009;51.436;6.972;2022-12-16T06:38:51;-3.80;99.90
2012;DHT22;1009;51.436;6.972;2022-12-16T06:41:35;-3.90;99.90
2012;DHT22;1009;51.436;6.972;2022-12-16T06:44:20;-3.90;99.90
2012;DHT22;1009;51.436;6.972;2022-12-16T06:47:04;-3.90;99.90
2012;DHT22;1009;51.436;6.972;2022-12-16T06:49:48;-4.00;99.90
2012;DHT22;1009;51.436;6.972;2022-12-16T06:52:33;-4.00;99.90
2012;DHT22;1009;51.436;6.972;2022-12-16T06:55:18;-4.00;99.90
2012;DHT22;1009;51.436;6.972;2022-12-16T06:58:02;-4.00;99.90
2012;DHT22;1009;51.436;6.972;2022-12-16T07:00:46;-4.00;99.90
2012;DHT22;1009;51.436;6.972;2022-12-16T07:03:31;-4.00;99.90
2012;DHT22;1009;51.436;6.972;2022-12-16T07:06:12;-4.00;99.90
2012;DHT22;1009;51.436;6.972;2022-12-16T07:08:58;-4.00;99.90
2012;DHT22;1009;51.436;6.972;2022-12-16T07:11:42;-4.00;99.90
2012;DHT22;1009;51.436;6.972;2022-12-16T07:14:26;-4.00;99.90
2012;DHT22;1009;51.436;6.972;2022-12-16T07:17:11;-4.10;99.90
2012;DHT22;1009;51.436;6.972;2022-12-16T07:19:55;-4.00;99.90
2012;DHT22;1009;51.436;6.972;2022-12-16T07:22:41;-4.10;99.90
2012;DHT22;1009;51.436;6.972;2022-12-16T07:25:27;-4.00;99.90
2012;DHT22;1009;51.436;6.972;2022-12-16T07:28:11;-4.10;99.90
2012;DHT22;1009;51.436;6.972;2022-12-16T07:30:55;-4.10;99.90
2012;DHT22;1009;51.436;6.972;2022-12-16T07:33:39;-4.10;99.90
2012;DHT22;1009;51.436;6.972;2022-12-16T07:36:23;-4.10;99.90
2012;DHT22;1009;51.436;6.972;2022-12-16T07:39:07;-4.10;99.90
2012;DHT22;1009;51.436;6.972;2022-12-16T07:41:52;-4.10;99.90
2012;DHT22;1009;51.436;6.972;2022-12-16T07:44:37;-4.10;99.90
2012;DHT22;1009;51.436;6.972;2022-12-16T07:47:21;-4.00;99.90
2012;DHT22;1009;51.436;6.972;2022-12-16T07:50:06;-4.00;99.90
2012;DHT22;1009;51.436;6.972;2022-12-16T07:52:53;-4.00;99.90
2012;DHT22;1009;51.436;6.972;2022-12-16T07:55:40;-4.20;99.90
2012;DHT22;1009;51.436;6.972;2022-12-16T07:58:27;-4.30;99.90
2012;DHT22;1009;51.436;6.972;2022-12-16T08:01:11;-4.40;99.90
2012;DHT22;1009;51.436;6.972;2022-12-16T08:03:53;-4.50;99.90
2012;DHT22;1009;51.436;6.972;2022-12-16T08:06:37;-4.50;99.90
2012;DHT22;1009;51.436;6.972;2022-12-16T08:09:21;-4.60;99.90
2012;DHT22;1009;51.436;6.972;2022-12-16T08:12:06;-4.40;99.90
2012;DHT22;1009;51.436;6.972;2022-12-16T08:14:51;-4.20;99.90
2012;DHT22;1009;51.436;6.972;2022-12-16T08:17:35;-4.00;99.90
2012;DHT22;1009;51.436;6.972;2022-12-16T08:20:20;-3.90;99.90
2012;DHT22;1009;51.436;6.972;2022-12-16T08:23:04;-3.80;99.90
2012;DHT22;1009;51.436;6.972;2022-12-16T08:25:45;-3.70;99.90
2012;DHT22;1009;51.436;6.972;2022-12-16T08:28:29;-3.50;99.90
2012;DHT22;1009;51.436;6.972;2022-12-16T08:31:15;-3.30;99.90
2012;DHT22;1009;51.436;6.972;2022-12-16T08:33:59;-3.30;99.90
2012;DHT22;1009;51.436;6.972;2022-12-16T08:36:44;-3.20;99.90
2012;DHT22;1009;51.436;6.972;2022-12-16T08:39:28;-3.10;99.90
2012;DHT22;1009;51.436;6.972;2022-12-16T08:42:12;-2.90;99.90
2012;DHT22;1009;51.436;6.972;2022-12-16T08:44:57;-2.80;99.90
2012;DHT22;1009;51.436;6.972;2022-12-16T08:47:42;-2.70;99.90
2012;DHT22;1009;51.436;6.972;2022-12-16T08:50:26;-2.50;99.90
2012;DHT22;1009;51.436;6.972;2022-12-16T08:53:10;-2.40;99.90
2012;DHT22;1009;51.436;6.972;2022-12-16T08:55:54;-2.40;99.90
2012;DHT22;1009;51.436;6.972;2022-12-16T08:58:39;-2.30;99.90
2012;DHT22;1009;51.436;6.972;2022-12-16T09:01:23;-2.20;99.90
2012;DHT22;1009;51.436;6.972;2022-12-16T09:04:08;-2.10;99.90
2012;DHT22;1009;51.436;6.972;2022-12-16T09:06:49;-2.10;99.90
2012;DHT22;1009;51.436;6.972;2022-12-16T09:09:33;-2.10;99.90
2012;DHT22;1009;51.436;6.972;2022-12-16T09:12:17;-1.90;99.90
2012;DHT22;1009;51.436;6.972;2022-12-16T09:15:01;-2.00;99.90
2012;DHT22;1009;51.436;6.972;2022-12-16T09:17:52;-1.80;99.90
2012;DHT22;1009;51.436;6.972;2022-12-16T09:20:38;-1.60;99.90
2012;DHT22;1009;51.436;6.972;2022-12-16T09:23:22;-1.50;99.90
2012;DHT22;1009;51.436;6.972;2022-12-16T09:26:06;-1.40;99.90
2012;DHT22;1009;51.436;6.972;2022-12-16T09:28:50;-1.30;99.90
2012;DHT22;1009;51.436;6.972;2022-12-16T09:31:33;-1.10;99.90
2012;DHT22;1009;51.436;6.972;2022-12-16T09:34:18;-1.00;99.90
2012;DHT22;1009;51.436;6.972;2022-12-16T09:37:04;-0.90;99.90
2012;DHT22;1009;51.436;6.972;2022-12-16T09:39:48;-0.70;99.90
2012;DHT22;1009;51.436;6.972;2022-12-16T09:42:43;-0.50;99.90
2012;DHT22;1009;51.436;6.972;2022-12-16T09:45:35;-0.30;99.90
2012;DHT22;1009;51.436;6.972;2022-12-16T09:48:26;-0.30;99.90
2012;DHT22;1009;51.436;6.972;2022-12-16T09:51:13;-0.20;99.90
2012;DHT22;1009;51.436;6.972;2022-12-16T09:54:00;-0.20;99.90
2012;DHT22;1009;51.436;6.972;2022-12-16T09:56:46;-0.10;99.90
2012;DHT22;1009;51.436;6.972;2022-12-16T09:59:34;0.00;99.90
2012;DHT22;1009;51.436;6.972;2022-12-16T10:02:19;0.20;99.90
2012;DHT22;1009;51.436;6.972;2022-12-16T10:05:09;0.30;99.90
2012;DHT22;1009;51.436;6.972;2022-12-16T10:08:08;0.30;99.90
2012;DHT22;1009;51.436;6.972;2022-12-16T10:11:05;0.40;99.90
2012;DHT22;1009;51.436;6.972;2022-12-16T10:13:56;0.50;99.90
2012;DHT22;1009;51.436;6.972;2022-12-16T10:16:48;0.40;99.90
2012;DHT22;1009;51.436;6.972;2022-12-16T10:19:43;0.60;99.90
2012;DHT22;1009;51.436;6.972;2022-12-16T10:22:36;0.80;99.90
2012;DHT22;1009;51.436;6.972;2022-12-16T10:25:38;1.00;99.90
2012;DHT22;1009;51.436;6.972;2022-12-16T10:28:37;1.00;99.90
2012;DHT22;1009;51.436;6.972;2022-12-16T10:31:24;0.90;99.90
2012;DHT22;1009;51.436;6.972;2022-12-16T10:34:10;1.00;99.90
2012;DHT22;1009;51.436;6.972;2022-12-16T10:36:57;1.20;99.90
2012;DHT22;1009;51.436;6.972;2022-12-16T10:39:44;1.20;99.90
2012;DHT22;1009;51.436;6.972;2022-12-16T10:42:34;1.20;99.90
2012;DHT22;1009;51.436;6.972;2022-12-16T10:45:24;1.00;99.90
2012;DHT22;1009;51.436;6.972;2022-12-16T10:48:09;1.00;99.90
2012;DHT22;1009;51.436;6.972;2022-12-16T10:50:53;1.10;99.90
2012;DHT22;1009;51.436;6.972;2022-12-16T10:53:38;1.20;99.90
2012;DHT22;1009;51.436;6.972;2022-12-16T10:56:38;1.30;99.90
2012;DHT22;1009;51.436;6.972;2022-12-16T10:59:34;1.30;99.90
2012;DHT22;1009;51.436;6.972;2022-12-16T11:02:22;1.20;99.90
2012;DHT22;1009;51.436;6.972;2022-12-16T11:05:22;1.20;99.90
2012;DHT22;1009;51.436;6.972;2022-12-16T11:08:23;1.40;99.90
2012;DHT22;1009;51.436;6.972;2022-12-16T11:11:21;1.60;99.90
2012;DHT22;1009;51.436;6.972;2022-12-16T11:14:15;1.50;99.90
2012;DHT22;1009;51.436;6.972;2022-12-16T11:17:16;1.40;99.90
2012;DHT22;1009;51.436;6.972;2022-12-16T11:20:24;1.30;99.90
2012;DHT22;1009;51.436;6.972;2022-12-16T11:23:14;1.20;99.90
2012;DHT22;1009;51.436;6.972;2022-12-16T11:26:08;1.30;99.90
2012;DHT22;1009;51.436;6.972;2022-12-16T11:29:09;1.20;99.90
2012;DHT22;1009;51.436;6.972;2022-12-16T11:31:59;1.30;99.90
2012;DHT22;1009;51.436;6.972;2022-12-16T11:34:48;1.40;99.90
2012;DHT22;1009;51.436;6.972;2022-12-16T11:37:37;1.40;99.90
2012;DHT22;1009;51.436;6.972;2022-12-16T11:40:22;1.70;99.90
2012;DHT22;1009;51.436;6.972;2022-12-16T11:43:10;1.80;99.90
2012;DHT22;1009;51.436;6.972;2022-12-16T11:45:56;2.00;99.90
2012;DHT22;1009;51.436;6.972;2022-12-16T11:48:46;2.10;99.90
2012;DHT22;1009;51.436;6.972;2022-12-16T11:51:34;2.20;99.90
2012;DHT22;1009;51.436;6.972;2022-12-16T11:54:24;2.40;99.90
2012;DHT22;1009;51.436;6.972;2022-12-16T11:57:17;2.80;99.90
2012;DHT22;1009;51.436;6.972;2022-12-16T12:00:05;3.30;99.90
2012;DHT22;1009;51.436;6.972;2022-12-16T12:02:55;3.40;99.90
2012;DHT22;1009;51.436;6.972;2022-12-16T12:05:46;3.50;99.90
2012;DHT22;1009;51.436;6.972;2022-12-16T12:08:53;3.80;99.90
2012;DHT22;1009;51.436;6.972;2022-12-16T12:11:46;4.30;99.90
2012;DHT22;1009;51.436;6.972;2022-12-16T12:14:37;4.50;99.90
2012;DHT22;1009;51.436;6.972;2022-12-16T12:17:30;4.50;99.90
2012;DHT22;1009;51.436;6.972;2022-12-16T12:20:34;4.40;99.90
2012;DHT22;1009;51.436;6.972;2022-12-16T12:23:30;4.30;99.90
2012;DHT22;1009;51.436;6.972;2022-12-16T12:26:22;4.40;99.90
2012;DHT22;1009;51.436;6.972;2022-12-16T12:29:15;4.40;99.90
2012;DHT22;1009;51.436;6.972;2022-12-16T12:32:08;4.60;99.90
2012;DHT22;1009;51.436;6.972;2022-12-16T12:35:08;4.70;99.90
2012;DHT22;1009;51.436;6.972;2022-12-16T12:37:59;4.60;99.90
2012;DHT22;1009;51.436;6.972;2022-12-16T12:40:54;4.70;99.90
2012;DHT22;1009;51.436;6.972;2022-12-16T12:43:45;4.70;99.90
2012;DHT22;1009;51.436;6.972;2022-12-16T12:46:37;4.60;99.90
2012;DHT22;1009;51.436;6.972;2022-12-16T12:49:32;4.80;99.90
2012;DHT22;1009;51.436;6.972;2022-12-16T12:52:30;5.10;99.90
2012;DHT22;1009;51.436;6.972;2022-12-16T12:55:24;5.50;99.90
2012;DHT22;1009;51.436;6.972;2022-12-16T12:58:12;5.70;99.90
2012;DHT22;1009;51.436;6.972;2022-12-16T13:00:59;6.00;99.90
2012;DHT22;1009;51.436;6.972;2022-12-16T13:03:49;6.00;99.90
2012;DHT22;1009;51.436;6.972;2022-12-16T13:06:36;6.60;99.90
2012;DHT22;1009;51.436;6.972;2022-12-16T13:09:27;6.50;99.90
2012;DHT22;1009;51.436;6.972;2022-12-16T13:15:33;6.40;99.90
2012;DHT22;1009;51.436;6.972;2022-12-16T13:18:23;6.40;99.90
2012;DHT22;1009;51.436;6.972;2022-12-16T13:21:44;7.10;99.90
2012;DHT22;1009;51.436;6.972;2022-12-16T13:24:44;7.00;99.90
2012;DHT22;1009;51.436;6.972;2022-12-16T13:27:44;7.10;99.90
2012;DHT22;1009;51.436;6.972;2022-12-16T13:30:31;6.80;99.90
2012;DHT22;1009;51.436;6.972;2022-12-16T13:33:22;6.80;99.90
2012;DHT22;1009;51.436;6.972;2022-12-16T13:36:09;6.70;99.90
2012;DHT22;1009;51.436;6.972;2022-12-16T13:38:57;6.10;99.90
2012;DHT22;1009;51.436;6.972;2022-12-16T13:41:50;5.30;99.90
2012;DHT22;1009;51.436;6.972;2022-12-16T13:44:58;4.90;99.90
2012;DHT22;1009;51.436;6.972;2022-12-16T13:48:01;4.90;99.90
2012;DHT22;1009;51.436;6.972;2022-12-16T13:50:47;5.20;99.90
2012;DHT22;1009;51.436;6.972;2022-12-16T13:53:33;5.30;99.90
2012;DHT22;1009;51.436;6.972;2022-12-16T13:56:24;5.30;99.90
2012;DHT22;1009;51.436;6.972;2022-12-16T13:59:15;5.40;99.90
2012;DHT22;1009;51.436;6.972;2022-12-16T14:02:11;5.30;99.90
2012;DHT22;1009;51.436;6.972;2022-12-16T14:04:57;5.20;99.90
2012;DHT22;1009;51.436;6.972;2022-12-16T14:07:43;5.40;99.90
2012;DHT22;1009;51.436;6.972;2022-12-16T14:10:29;5.70;99.90
2012;DHT22;1009;51.436;6.972;2022-12-16T14:13:20;5.90;99.90
2012;DHT22;1009;51.436;6.972;2022-12-16T14:16:10;5.60;99.90
2012;DHT22;1009;51.436;6.972;2022-12-16T14:19:03;5.10;99.90
2012;DHT22;1009;51.436;6.972;2022-12-16T14:21:57;4.90;99.90
2012;DHT22;1009;51.436;6.972;2022-12-16T14:24:43;5.00;99.90
2012;DHT22;1009;51.436;6.972;2022-12-16T14:27:28;5.20;99.90
2012;DHT22;1009;51.436;6.972;2022-12-16T14:30:19;5.10;99.90
2012;DHT22;1009;51.436;6.972;2022-12-16T14:33:22;4.70;99.90
2012;DHT22;1009;51.436;6.972;2022-12-16T14:36:22;4.30;99.90
2012;DHT22;1009;51.436;6.972;2022-12-16T14:39:09;3.70;99.90
2012;DHT22;1009;51.436;6.972;2022-12-16T14:41:54;3.30;99.90
2012;DHT22;1009;51.436;6.972;2022-12-16T14:44:39;2.80;99.90
2012;DHT22;1009;51.436;6.972;2022-12-16T14:47:26;2.30;99.90
2012;DHT22;1009;51.436;6.972;2022-12-16T14:50:19;2.10;99.90
2012;DHT22;1009;51.436;6.972;2022-12-16T14:53:16;1.90;99.90
2012;DHT22;1009;51.436;6.972;2022-12-16T14:56:15;1.70;99.90
2012;DHT22;1009;51.436;6.972;2022-12-16T14:59:12;1.50;99.90
2012;DHT22;1009;51.436;6.972;2022-12-16T15:02:07;1.30;99.90
2012;DHT22;1009;51.436;6.972;2022-12-16T15:04:58;1.30;99.90
2012;DHT22;1009;51.436;6.972;2022-12-16T15:07:44;1.20;99.90
2012;DHT22;1009;51.436;6.972;2022-12-16T15:10:28;1.20;99.90
2012;DHT22;1009;51.436;6.972;2022-12-16T15:13:16;0.90;99.90
2012;DHT22;1009;51.436;6.972;2022-12-16T15:16:00;0.60;99.90
2012;DHT22;1009;51.436;6.972;2022-12-16T15:18:49;0.30;99.90
2012;DHT22;1009;51.436;6.972;2022-12-16T15:21:41;0.20;99.90
2012;DHT22;1009;51.436;6.972;2022-12-16T15:24:34;0.20;99.90
2012;DHT22;1009;51.436;6.972;2022-12-16T15:27:23;0.10;99.90
2012;DHT22;1009;51.436;6.972;2022-12-16T15:30:31;0.20;99.90
2012;DHT22;1009;51.436;6.972;2022-12-16T15:33:17;0.20;99.90
2012;DHT22;1009;51.436;6.972;2022-12-16T15:36:02;0.20;99.90
2012;DHT22;1009;51.436;6.972;2022-12-16T15:38:48;0.10;99.90
2012;DHT22;1009;51.436;6.972;2022-12-16T15:41:35;0.20;99.90
2012;DHT22;1009;51.436;6.972;2022-12-16T15:44:22;0.10;99.90
2012;DHT22;1009;51.436;6.972;2022-12-16T15:47:19;0.20;99.90
2012;DHT22;1009;51.436;6.972;2022-12-16T15:50:04;0.20;99.90
2012;DHT22;1009;51.436;6.972;2022-12-16T15:52:49;0.20;99.90
2012;DHT22;1009;51.436;6.972;2022-12-16T15:55:36;0.10;99.90
2012;DHT22;1009;51.436;6.972;2022-12-16T15:58:27;0.10;99.90
2012;DHT22;1009;51.436;6.972;2022-12-16T16:01:14;-0.10;99.90
2012;DHT22;1009;51.436;6.972;2022-12-16T16:03:59;-0.20;99.90
2012;DHT22;1009;51.436;6.972;2022-12-16T16:06:47;-0.20;99.90
2012;DHT22;1009;51.436;6.972;2022-12-16T16:09:33;-0.30;99.90
2012;DHT22;1009;51.436;6.972;2022-12-16T16:12:20;-0.30;99.90
2012;DHT22;1009;51.436;6.972;2022-12-16T16:15:06;-0.30;99.90
2012;DHT22;1009;51.436;6.972;2022-12-16T16:17:55;-0.40;99.90
2012;DHT22;1009;51.436;6.972;2022-12-16T16:20:40;-0.40;99.90
2012;DHT22;1009;51.436;6.972;2022-12-16T16:23:29;-0.30;99.90
2012;DHT22;1009;51.436;6.972;2022-12-16T16:26:16;-0.30;99.90
2012;DHT22;1009;51.436;6.972;2022-12-16T16:29:03;-0.30;99.90
2012;DHT22;1009;51.436;6.972;2022-12-16T16:31:47;-0.10;99.90
2012;DHT22;1009;51.436;6.972;2022-12-16T16:34:32;-0.20;99.90
2012;DHT22;1009;51.436;6.972;2022-12-16T16:37:18;-0.30;99.90
2012;DHT22;1009;51.436;6.972;2022-12-16T16:40:15;-0.30;99.90
2012;DHT22;1009;51.436;6.972;2022-12-16T16:43:00;-0.30;99.90
2012;DHT22;1009;51.436;6.972;2022-12-16T16:45:52;-0.40;99.90
2012;DHT22;1009;51.436;6.972;2022-12-16T16:48:37;-0.30;99.90
2012;DHT22;1009;51.436;6.972;2022-12-16T16:51:21;-0.20;99.90
2012;DHT22;1009;51.436;6.972;2022-12-16T16:54:06;-0.10;99.90
2012;DHT22;1009;51.436;6.972;2022-12-16T16:56:50;-0.20;99.90
2012;DHT22;1009;51.436;6.972;2022-12-16T16:59:35;-0.20;99.90
2012;DHT22;1009;51.436;6.972;2022-12-16T17:02:22;-0.20;99.90
2012;DHT22;1009;51.436;6.972;2022-12-16T17:05:21;0.00;99.90
2012;DHT22;1009;51.436;6.972;2022-12-16T17:08:06;-0.10;99.90
2012;DHT22;1009;51.436;6.972;2022-12-16T17:10:50;-0.20;99.90
2012;DHT22;1009;51.436;6.972;2022-12-16T17:13:46;-0.20;99.90
2012;DHT22;1009;51.436;6.972;2022-12-16T17:16:30;-0.10;99.90
2012;DHT22;1009;51.436;6.972;2022-12-16T17:19:16;-0.10;99.90
2012;DHT22;1009;51.436;6.972;2022-12-16T17:22:00;-0.30;99.90
2012;DHT22;1009;51.436;6.972;2022-12-16T17:24:59;-0.30;99.90
2012;DHT22;1009;51.436;6.972;2022-12-16T17:27:44;-0.10;99.90
2012;DHT22;1009;51.436;6.972;2022-12-16T17:30:28;0.00;99.90
2012;DHT22;1009;51.436;6.972;2022-12-16T17:33:12;0.00;99.90
2012;DHT22;1009;51.436;6.972;2022-12-16T17:35:58;0.00;99.90
2012;DHT22;1009;51.436;6.972;2022-12-16T17:38:43;-0.10;99.90
2012;DHT22;1009;51.436;6.972;2022-12-16T17:41:28;-0.10;99.90
2012;DHT22;1009;51.436;6.972;2022-12-16T17:44:13;-0.20;99.90
2012;DHT22;1009;51.436;6.972;2022-12-16T17:46:58;-0.20;99.90
2012;DHT22;1009;51.436;6.972;2022-12-16T17:49:42;-0.10;99.90
2012;DHT22;1009;51.436;6.972;2022-12-16T17:52:28;-0.20;99.90
2012;DHT22;1009;51.436;6.972;2022-12-16T17:55:12;-0.30;99.90
2012;DHT22;1009;51.436;6.972;2022-12-16T17:57:57;-0.30;99.90
2012;DHT22;1009;51.436;6.972;2022-12-16T18:00:41;-0.40;99.90